createdAt,value
2023-05-01T00:01:13.283Z,5.60
2023-05-01T00:03:39.900Z,4.93
2023-05-01T00:06:08.486Z,5.25
2023-05-01T00:08:34.912Z,4.90
2023-05-01T00:11:05.230Z,4.90
2023-05-01T00:13:32.820Z,4.85
2023-05-01T00:15:59.531Z,5.18
2023-05-01T00:18:26.243Z,4.82
2023-05-01T00:20:52.929Z,4.63
2023-05-01T00:23:19.656Z,4.57
2023-05-01T00:25:46.343Z,4.90
2023-05-01T00:28:13.012Z,4.63
2023-05-01T00:30:39.641Z,4.80
2023-05-01T00:33:06.215Z,4.72
2023-05-01T00:35:32.598Z,4.90
2023-05-01T00:37:59.442Z,4.22
2023-05-01T00:40:26.078Z,4.72
2023-05-01T00:42:52.657Z,4.80
2023-05-01T00:45:19.243Z,4.60
2023-05-01T00:47:46.743Z,5.30
2023-05-01T00:50:13.969Z,5.07
2023-05-01T00:52:40.902Z,4.90
2023-05-01T00:55:08.355Z,4.72
2023-05-01T00:57:35.108Z,4.43
2023-05-01T01:00:02.851Z,5.00
2023-05-01T01:02:32.104Z,4.90
2023-05-01T01:05:00.651Z,4.80
2023-05-01T01:08:00.765Z,4.65
2023-05-01T01:10:37.473Z,5.05
2023-05-01T01:13:25.404Z,4.82
2023-05-01T01:16:19.160Z,4.75
2023-05-01T01:19:19.908Z,4.82
2023-05-01T01:21:50.948Z,5.32
2023-05-01T01:24:46.622Z,5.03
2023-05-01T01:27:45.421Z,4.47
2023-05-01T01:30:41.598Z,4.90
2023-05-01T01:33:16.926Z,5.43
2023-05-01T01:35:53.758Z,5.13
2023-05-01T01:38:49.240Z,5.53
2023-05-01T01:41:24.173Z,5.30
2023-05-01T01:44:01.104Z,5.25
2023-05-01T01:46:29.952Z,5.15
2023-05-01T01:48:59.013Z,5.65
2023-05-01T01:51:29.622Z,6.13
2023-05-01T01:54:02.953Z,5.95
2023-05-01T01:56:31.115Z,5.50
2023-05-01T01:59:01.137Z,5.00
2023-05-01T02:01:29.345Z,4.95
2023-05-01T02:04:00.388Z,5.63
2023-05-01T02:06:29.100Z,5.57
2023-05-01T02:08:58.441Z,5.43
2023-05-01T02:11:26.291Z,5.55
2023-05-01T02:13:55.229Z,5.72
2023-05-01T02:16:23.222Z,5.18
2023-05-01T02:18:50.906Z,5.70
2023-05-01T02:21:19.012Z,5.80
2023-05-01T02:23:45.797Z,6.30
2023-05-01T02:26:16.449Z,5.63
2023-05-01T02:28:43.097Z,6.05
2023-05-01T02:31:10.274Z,5.85
2023-05-01T02:33:37.064Z,5.97
2023-05-01T02:36:03.853Z,5.55
2023-05-01T02:38:30.925Z,5.43
2023-05-01T02:40:58.700Z,5.40
2023-05-01T02:43:27.864Z,6.22
2023-05-01T02:45:55.268Z,6.18
2023-05-01T02:50:52.777Z,5.50
2023-05-01T02:53:20.350Z,5.25
2023-05-01T02:55:47.734Z,5.18
2023-05-01T03:00:47.221Z,5.32
2023-05-01T03:03:13.808Z,5.60
2023-05-01T03:05:40.580Z,6.00
2023-05-01T03:08:07.572Z,5.60
2023-05-01T03:10:35.095Z,5.95
2023-05-01T03:13:01.557Z,5.75
2023-05-01T03:15:27.862Z,5.93
2023-05-01T03:17:54.247Z,6.15
2023-05-01T03:20:20.600Z,5.20
2023-05-01T03:22:47.059Z,5.80
2023-05-01T03:25:13.433Z,5.82
2023-05-01T03:27:39.770Z,5.82
2023-05-01T03:30:07.000Z,6.07
2023-05-01T03:32:33.451Z,6.18
2023-05-01T03:34:59.861Z,5.53
2023-05-01T03:37:26.252Z,5.53
2023-05-01T03:39:52.557Z,5.78
2023-05-01T03:42:18.910Z,5.88
2023-05-01T03:44:45.569Z,5.90
2023-05-01T03:47:11.893Z,5.72
2023-05-01T03:49:38.197Z,5.80
2023-05-01T03:52:04.611Z,5.72
2023-05-01T03:54:30.944Z,6.07
2023-05-01T03:56:57.270Z,5.82
2023-05-01T03:59:23.600Z,6.20
2023-05-01T04:01:49.953Z,5.68
2023-05-01T04:04:16.401Z,6.47
2023-05-01T04:06:42.821Z,5.63
2023-05-01T04:09:09.182Z,5.75
2023-05-01T04:11:35.504Z,4.82
2023-05-01T04:14:01.993Z,5.20
2023-05-01T04:16:28.428Z,5.07
2023-05-01T04:18:54.798Z,5.35
2023-05-01T04:21:21.195Z,5.53
2023-05-01T04:23:47.521Z,6.30
2023-05-01T04:26:13.873Z,5.93
2023-05-01T04:28:40.180Z,4.93
2023-05-01T04:31:06.580Z,5.32
2023-05-01T04:33:32.946Z,5.20
2023-05-01T04:35:59.273Z,5.32
2023-05-01T04:38:25.688Z,5.25
2023-05-01T04:40:52.040Z,6.25
2023-05-01T04:43:18.358Z,5.57
2023-05-01T04:45:44.698Z,4.75
2023-05-01T04:48:11.132Z,5.07
2023-05-01T04:50:37.530Z,5.50
2023-05-01T04:53:03.886Z,5.47
2023-05-01T04:55:31.218Z,5.10
2023-05-01T04:57:57.720Z,4.82
2023-05-01T05:00:24.158Z,4.80
2023-05-01T05:02:50.571Z,5.15
2023-05-01T05:05:16.972Z,4.75
2023-05-01T05:07:43.300Z,4.45
2023-05-01T05:10:09.968Z,4.70
2023-05-01T05:12:36.326Z,5.07
2023-05-01T05:15:02.660Z,4.70
2023-05-01T05:17:29.050Z,4.65
2023-05-01T05:19:55.710Z,4.38
2023-05-01T05:22:22.276Z,4.88
2023-05-01T05:24:53.223Z,5.30
2023-05-01T05:27:19.594Z,4.40
2023-05-01T05:29:45.922Z,3.92
2023-05-01T05:32:12.280Z,4.47
2023-05-01T05:34:38.893Z,4.35
2023-05-01T05:37:05.266Z,4.45
2023-05-01T05:39:31.602Z,4.43
2023-05-01T05:41:57.972Z,4.07
2023-05-01T05:44:24.304Z,4.50
2023-05-01T05:46:50.646Z,4.78
2023-05-01T05:49:17.014Z,9.45
2023-05-01T05:51:43.399Z,4.40
2023-05-01T05:54:09.740Z,3.83
2023-05-01T05:56:36.068Z,4.35
2023-05-01T05:59:02.412Z,4.22
2023-05-01T06:01:29.229Z,4.13
2023-05-01T06:03:55.779Z,4.18
2023-05-01T06:06:22.757Z,4.50
2023-05-01T06:08:49.184Z,4.45
2023-05-01T06:11:15.528Z,4.68
2023-05-01T06:13:41.817Z,3.40
2023-05-01T06:16:08.321Z,4.63
2023-05-01T06:18:34.852Z,3.92
2023-05-01T06:21:01.204Z,4.13
2023-05-01T06:23:27.992Z,3.88
2023-05-01T06:25:54.333Z,3.88
2023-05-01T06:28:20.654Z,5.15
2023-05-01T06:30:47.119Z,3.92
2023-05-01T06:33:13.797Z,4.30
2023-05-01T06:35:40.266Z,4.13
2023-05-01T06:38:06.580Z,4.18
2023-05-01T06:40:33.003Z,3.95
2023-05-01T06:42:59.322Z,3.95
2023-05-01T06:45:25.650Z,3.30
2023-05-01T06:47:52.153Z,3.25
2023-05-01T06:50:18.502Z,3.80
2023-05-01T06:52:44.865Z,3.60
2023-05-01T06:55:11.233Z,3.63
2023-05-01T06:57:37.661Z,3.40
2023-05-01T07:00:04.430Z,3.50
2023-05-01T07:02:30.843Z,4.05
2023-05-01T07:04:57.428Z,3.60
2023-05-01T07:07:23.831Z,3.30
2023-05-01T07:09:50.207Z,2.97
2023-05-01T07:12:16.536Z,3.53
2023-05-01T07:14:42.917Z,3.40
2023-05-01T07:17:09.284Z,3.45
2023-05-01T07:19:35.658Z,3.55
2023-05-01T07:22:02.197Z,3.20
2023-05-01T07:24:28.550Z,3.38
2023-05-01T07:26:54.988Z,3.20
2023-05-01T07:29:21.322Z,3.42
2023-05-01T07:31:47.707Z,3.70
2023-05-01T07:34:14.055Z,3.25
2023-05-01T07:36:40.419Z,3.30
2023-05-01T07:39:06.743Z,3.08
2023-05-01T07:41:33.076Z,3.33
2023-05-01T07:43:59.660Z,3.70
2023-05-01T07:46:26.190Z,3.00
2023-05-01T07:48:52.771Z,3.25
2023-05-01T07:51:19.215Z,3.33
2023-05-01T07:53:45.541Z,2.97
2023-05-01T07:56:11.911Z,3.35
2023-05-01T07:58:38.355Z,4.05
2023-05-01T08:01:05.895Z,3.22
2023-05-01T08:03:32.425Z,3.00
2023-05-01T08:05:58.868Z,2.88
2023-05-01T08:08:25.282Z,3.38
2023-05-01T08:10:52.335Z,3.00
2023-05-01T08:13:18.967Z,3.40
2023-05-01T08:15:48.839Z,3.20
2023-05-01T08:18:15.312Z,3.05
2023-05-01T08:20:41.637Z,2.70
2023-05-01T08:23:07.964Z,3.13
2023-05-01T08:25:34.298Z,3.53
2023-05-01T08:28:00.669Z,3.03
2023-05-01T08:30:27.042Z,2.60
2023-05-01T08:32:53.434Z,2.42
2023-05-01T08:35:19.785Z,2.90
2023-05-01T08:37:46.140Z,2.90
2023-05-01T08:40:12.569Z,2.83
2023-05-01T08:42:39.076Z,2.97
2023-05-01T08:45:09.551Z,3.25
2023-05-01T08:47:40.514Z,3.03
2023-05-01T08:50:10.805Z,2.83
2023-05-01T08:52:40.785Z,2.80
2023-05-01T08:55:11.718Z,3.00
2023-05-01T08:57:39.038Z,2.85
2023-05-01T09:00:06.730Z,3.13
2023-05-01T09:02:35.047Z,2.83
2023-05-01T09:05:03.257Z,2.50
2023-05-01T09:07:29.919Z,2.55
2023-05-01T09:09:56.731Z,2.85
2023-05-01T09:12:25.754Z,3.03
2023-05-01T09:14:53.483Z,3.20
2023-05-01T09:17:21.585Z,2.45
2023-05-01T09:19:49.972Z,2.80
2023-05-01T09:22:18.761Z,2.60
2023-05-01T09:24:45.497Z,2.42
2023-05-01T09:27:13.360Z,2.90
2023-05-01T09:29:44.943Z,2.92
2023-05-01T09:32:26.246Z,2.60
2023-05-01T09:34:53.080Z,2.80
2023-05-01T09:37:28.524Z,2.70
2023-05-01T09:40:12.177Z,2.63
2023-05-01T09:42:52.929Z,2.85
2023-05-01T09:45:20.053Z,2.90
2023-05-01T09:47:47.169Z,2.85
2023-05-01T09:50:34.756Z,3.10
2023-05-01T09:53:02.452Z,3.17
2023-05-01T09:55:28.885Z,3.40
2023-05-01T09:57:55.310Z,4.05
2023-05-01T10:00:21.985Z,3.50
2023-05-01T10:02:49.828Z,2.85
2023-05-01T10:05:16.771Z,3.53
2023-05-01T10:10:23.415Z,3.50
2023-05-01T10:15:25.292Z,3.38
2023-05-01T10:17:54.332Z,3.92
2023-05-01T10:20:21.568Z,3.50
2023-05-01T10:22:48.280Z,3.00
2023-05-01T10:27:42.393Z,3.30
2023-05-01T10:30:10.109Z,3.53
2023-05-01T10:32:40.280Z,4.25
2023-05-01T10:35:19.179Z,3.75
2023-05-01T10:37:51.617Z,3.55
2023-05-01T10:40:40.376Z,3.97
2023-05-01T10:43:30.595Z,3.30
2023-05-01T10:46:18.085Z,3.90
2023-05-01T10:48:47.883Z,3.63
2023-05-01T10:51:20.003Z,3.55
2023-05-01T10:54:10.087Z,3.42
2023-05-01T10:56:58.968Z,4.10
2023-05-01T10:59:26.232Z,3.35
2023-05-01T11:01:53.436Z,3.70
2023-05-01T11:04:23.058Z,3.47
2023-05-01T11:07:02.032Z,3.63
2023-05-01T11:09:42.001Z,3.80
2023-05-01T11:12:10.216Z,3.72
2023-05-01T11:14:55.261Z,3.28
2023-05-01T11:17:52.598Z,3.65
2023-05-01T11:20:24.916Z,3.83
2023-05-01T11:22:56.111Z,3.63
2023-05-01T11:25:23.720Z,3.70
2023-05-01T11:28:10.980Z,3.78
2023-05-01T11:30:38.764Z,4.68
2023-05-01T11:33:07.119Z,4.40
2023-05-01T11:35:36.074Z,4.35
2023-05-01T11:38:02.802Z,3.55
2023-05-01T11:43:07.662Z,4.03
2023-05-01T11:45:37.824Z,3.90
2023-05-01T11:48:05.850Z,3.78
2023-05-01T11:50:33.885Z,3.95
2023-05-01T11:53:00.347Z,4.00
2023-05-01T11:55:34.883Z,4.15
2023-05-01T11:58:01.917Z,4.00
2023-05-01T12:00:31.059Z,4.20
2023-05-01T12:03:08.052Z,3.78
2023-05-01T12:05:36.616Z,5.15
2023-05-01T12:08:14.957Z,3.78
2023-05-01T12:10:43.653Z,4.60
2023-05-01T12:13:13.124Z,4.10
2023-05-01T12:15:45.310Z,3.90
2023-05-01T12:18:13.715Z,3.83
2023-05-01T12:20:49.264Z,3.72
2023-05-01T12:23:16.693Z,3.78
2023-05-01T12:25:44.606Z,4.18
2023-05-01T12:28:15.405Z,4.15
2023-05-01T12:30:43.951Z,3.92
2023-05-01T12:33:14.904Z,6.32
2023-05-01T12:35:43.009Z,4.40
2023-05-01T12:38:16.744Z,4.30
2023-05-01T12:40:57.632Z,4.55
2023-05-01T12:43:37.325Z,4.72
2023-05-01T12:46:05.897Z,4.10
2023-05-01T12:48:33.185Z,3.65
2023-05-01T12:51:00.828Z,4.22
2023-05-01T12:53:29.033Z,4.90
2023-05-01T12:55:58.665Z,4.07
2023-05-01T12:58:37.711Z,3.63
2023-05-01T13:01:05.753Z,4.43
2023-05-01T13:03:34.760Z,3.95
2023-05-01T13:06:03.813Z,3.95
2023-05-01T13:08:36.547Z,3.70
2023-05-01T13:11:12.053Z,3.40
2023-05-01T13:13:39.270Z,3.65
2023-05-01T13:16:11.856Z,3.67
2023-05-01T13:18:50.396Z,3.55
2023-05-01T13:21:21.200Z,3.80
2023-05-01T13:23:59.449Z,4.07
2023-05-01T13:26:35.837Z,4.60
2023-05-01T13:29:04.277Z,3.75
2023-05-01T13:31:31.342Z,3.55
2023-05-01T13:33:59.644Z,3.67
2023-05-01T13:36:31.765Z,4.00
2023-05-01T13:38:58.280Z,3.60
2023-05-01T13:41:26.396Z,4.78
2023-05-01T13:43:54.646Z,3.95
2023-05-01T13:46:23.840Z,3.47
2023-05-01T13:48:50.896Z,3.92
2023-05-01T13:51:26.987Z,3.97
2023-05-01T13:53:56.183Z,3.95
2023-05-01T13:56:23.970Z,3.80
2023-05-01T13:58:50.774Z,3.65
2023-05-01T14:01:22.776Z,3.63
2023-05-01T14:03:50.072Z,3.47
2023-05-01T14:06:19.438Z,4.00
2023-05-01T14:08:47.504Z,3.92
2023-05-01T14:11:15.094Z,3.60
2023-05-01T14:13:44.606Z,3.88
2023-05-01T14:16:22.010Z,3.67
2023-05-01T14:18:48.610Z,3.63
2023-05-01T14:21:16.924Z,4.13
2023-05-01T14:23:43.349Z,3.28
2023-05-01T14:26:11.473Z,3.60
2023-05-01T14:28:42.235Z,3.53
2023-05-01T14:31:08.988Z,3.53
2023-05-01T14:33:41.935Z,3.72
2023-05-01T14:36:09.367Z,3.45
2023-05-01T14:38:36.153Z,3.90
2023-05-01T14:43:31.118Z,4.07
2023-05-01T14:45:57.611Z,4.05
2023-05-01T14:48:35.233Z,4.20
2023-05-01T14:51:04.129Z,3.67
2023-05-01T14:53:32.709Z,4.05
2023-05-01T14:55:59.157Z,4.18
2023-05-01T14:58:25.926Z,4.25
2023-05-01T15:03:19.448Z,4.07
2023-05-01T15:05:46.383Z,3.85
2023-05-01T15:08:13.157Z,4.30
2023-05-01T15:10:39.968Z,4.30
2023-05-01T15:13:06.532Z,4.70
2023-05-01T15:15:35.229Z,4.53
2023-05-01T15:18:01.771Z,4.28
2023-05-01T15:20:29.305Z,4.07
2023-05-01T15:22:56.902Z,3.92
2023-05-01T15:25:23.569Z,4.22
2023-05-01T15:30:16.487Z,4.50
2023-05-01T15:32:43.608Z,3.65
2023-05-01T15:35:10.771Z,4.20
2023-05-01T15:37:37.274Z,3.33
2023-05-01T15:40:05.043Z,3.92
2023-05-01T15:42:33.090Z,3.58
2023-05-01T15:45:00.152Z,3.65
2023-05-01T15:47:26.985Z,3.72
2023-05-01T15:49:54.021Z,3.90
2023-05-01T15:52:20.434Z,3.97
2023-05-01T15:54:47.156Z,3.63
2023-05-01T15:59:40.869Z,3.67
2023-05-01T16:02:07.932Z,4.00
2023-05-01T16:04:34.974Z,4.15
2023-05-01T16:07:02.764Z,3.70
2023-05-01T16:09:32.878Z,3.95
2023-05-01T16:12:01.941Z,3.70
2023-05-01T16:14:28.579Z,3.80
2023-05-01T16:16:55.040Z,3.47
2023-05-01T16:19:21.708Z,3.70
2023-05-01T16:21:48.125Z,3.63
2023-05-01T16:24:14.952Z,3.95
2023-05-01T16:29:08.517Z,4.03
2023-05-01T16:31:39.711Z,4.05
2023-05-01T16:34:07.233Z,3.65
2023-05-01T16:36:40.191Z,4.18
2023-05-01T16:39:07.884Z,3.83
2023-05-01T16:41:50.593Z,3.70
2023-05-01T16:44:18.660Z,4.22
2023-05-01T16:46:53.849Z,4.05
2023-05-01T16:49:20.662Z,3.80
2023-05-01T16:54:13.752Z,4.18
2023-05-01T16:56:40.273Z,4.30
2023-05-01T16:59:06.947Z,4.10
2023-05-01T17:01:34.591Z,9.13
2023-05-01T17:04:01.344Z,4.35
2023-05-01T17:06:27.776Z,4.25
2023-05-01T17:08:54.273Z,4.38
2023-05-01T17:11:21.544Z,4.82
2023-05-01T17:13:48.266Z,4.57
2023-05-01T17:16:14.787Z,4.82
2023-05-01T17:18:41.370Z,5.40
2023-05-01T17:21:08.315Z,5.47
2023-05-01T17:23:34.772Z,4.65
2023-05-01T17:26:01.329Z,4.88
2023-05-01T17:28:28.104Z,4.35
2023-05-01T17:30:54.820Z,4.57
2023-05-01T17:33:22.231Z,4.57
2023-05-01T17:35:48.720Z,5.13
2023-05-01T17:38:17.821Z,5.00
2023-05-01T17:40:44.431Z,5.70
2023-05-01T17:43:11.080Z,15.25
2023-05-01T17:45:37.555Z,9.25
2023-05-01T17:48:04.462Z,6.38
2023-05-01T17:50:32.236Z,5.53
2023-05-01T17:52:58.682Z,5.82
2023-05-01T17:55:25.139Z,6.82
2023-05-01T17:57:52.217Z,6.47
2023-05-01T18:00:19.188Z,7.53
2023-05-01T18:02:45.699Z,7.53
2023-05-01T18:05:12.742Z,7.10
2023-05-01T18:07:39.291Z,7.50
2023-05-01T18:10:06.414Z,7.07
2023-05-01T18:12:32.842Z,7.60
2023-05-01T18:14:59.318Z,6.95
2023-05-01T18:17:25.834Z,7.40
2023-05-01T18:19:52.377Z,6.85
2023-05-01T18:22:18.830Z,7.30
2023-05-01T18:24:45.273Z,6.22
2023-05-01T18:27:12.453Z,6.03
2023-05-01T18:29:38.942Z,6.13
2023-05-01T18:32:05.771Z,5.80
2023-05-01T18:34:32.327Z,7.40
2023-05-01T18:36:58.756Z,7.03
2023-05-01T18:39:25.291Z,6.82
2023-05-01T18:41:54.174Z,6.20
2023-05-01T18:44:20.747Z,7.00
2023-05-01T18:46:47.257Z,6.35
2023-05-01T18:49:13.816Z,5.93
2023-05-01T18:51:40.261Z,6.57
2023-05-01T18:54:06.767Z,6.72
2023-05-01T18:56:33.512Z,7.60
2023-05-01T19:01:27.185Z,9.35
2023-05-01T19:03:53.719Z,9.68
2023-05-01T19:06:20.151Z,8.88
2023-05-01T19:08:46.619Z,8.95
2023-05-01T19:11:13.049Z,8.93
2023-05-01T19:13:39.499Z,8.45
2023-05-01T19:16:06.154Z,11.20
2023-05-01T19:18:32.619Z,15.57
2023-05-01T19:20:59.098Z,13.88
2023-05-01T19:23:25.485Z,12.45
2023-05-01T19:25:51.983Z,15.48
2023-05-01T19:28:18.421Z,16.23
2023-05-01T19:30:44.924Z,11.95
2023-05-01T19:33:11.401Z,10.25
2023-05-01T19:35:37.944Z,10.25
2023-05-01T19:38:04.388Z,11.35
2023-05-01T19:40:31.716Z,10.95
2023-05-01T19:42:58.116Z,11.77
2023-05-01T19:45:24.549Z,11.40
2023-05-01T19:47:51.155Z,11.18
2023-05-01T19:50:17.962Z,12.07
2023-05-01T19:52:44.383Z,11.15
2023-05-01T19:55:11.057Z,20.65
2023-05-01T19:57:37.461Z,14.60
2023-05-01T20:00:10.895Z,12.30
2023-05-01T20:02:37.878Z,12.63
2023-05-01T20:05:05.003Z,12.95
2023-05-01T20:07:31.690Z,13.02
2023-05-01T20:09:58.644Z,12.70
2023-05-01T20:12:25.556Z,12.15
2023-05-01T20:14:52.082Z,13.48
2023-05-01T20:17:18.789Z,12.90
2023-05-01T20:19:45.570Z,12.85
2023-05-01T20:22:12.369Z,13.75
2023-05-01T20:24:39.091Z,14.85
2023-05-01T20:27:05.842Z,14.25
2023-05-01T20:29:32.570Z,16.58
2023-05-01T20:32:04.388Z,15.50
2023-05-01T20:34:34.093Z,15.25
2023-05-01T20:37:00.565Z,14.63
2023-05-01T20:39:26.983Z,14.23
2023-05-01T20:41:53.854Z,12.43
2023-05-01T20:44:20.261Z,12.38
2023-05-01T20:46:46.855Z,13.18
2023-05-01T20:49:15.921Z,12.48
2023-05-01T20:51:42.999Z,12.85
2023-05-01T20:54:09.673Z,11.85
2023-05-01T20:56:36.111Z,12.25
2023-05-01T20:59:04.502Z,12.93
2023-05-01T21:01:31.555Z,14.60
2023-05-01T21:04:00.011Z,14.02
2023-05-01T21:06:26.919Z,14.25
2023-05-01T21:08:53.409Z,13.30
2023-05-01T21:11:20.108Z,14.00
2023-05-01T21:13:46.542Z,14.75
2023-05-01T21:16:14.892Z,13.02
2023-05-01T21:18:41.614Z,14.13
2023-05-01T21:21:08.927Z,14.98
2023-05-01T21:23:36.320Z,24.33
2023-05-01T21:26:03.005Z,18.65
2023-05-01T21:28:29.910Z,16.33
2023-05-01T21:33:23.208Z,17.00
2023-05-01T21:35:49.666Z,15.93
2023-05-01T21:38:16.770Z,18.45
2023-05-01T21:40:43.646Z,19.67
2023-05-01T21:43:10.069Z,17.80
2023-05-01T21:45:39.199Z,16.65
2023-05-01T21:48:07.520Z,17.08
2023-05-01T21:50:37.154Z,15.90
2023-05-01T21:53:05.355Z,15.95
2023-05-01T21:55:31.913Z,15.75
2023-05-01T21:57:58.738Z,14.60
2023-05-01T22:00:25.695Z,13.90
2023-05-01T22:05:21.537Z,15.15
2023-05-01T22:07:49.104Z,14.80
2023-05-01T22:10:21.683Z,15.63
2023-05-01T22:12:48.396Z,14.30
2023-05-01T22:15:16.122Z,15.80
2023-05-01T22:17:42.905Z,15.48
2023-05-01T22:20:09.867Z,15.48
2023-05-01T22:25:04.200Z,14.27
2023-05-01T22:27:31.358Z,13.65
2023-05-01T22:29:58.213Z,13.45
2023-05-01T22:34:51.826Z,14.20
2023-05-01T22:37:18.513Z,13.82
2023-05-01T22:39:45.332Z,14.07
2023-05-01T22:42:13.263Z,14.00
2023-05-01T22:44:40.001Z,13.23
2023-05-01T22:47:06.449Z,13.85
2023-05-01T22:49:32.909Z,13.10
2023-05-01T22:51:59.630Z,13.23
2023-05-01T22:54:26.328Z,14.13
2023-05-01T22:56:52.935Z,14.68
2023-05-01T22:59:19.989Z,15.25
2023-05-01T23:01:46.703Z,15.38
2023-05-01T23:04:13.911Z,15.90
2023-05-01T23:06:41.059Z,14.98
2023-05-01T23:11:34.859Z,14.45
2023-05-01T23:14:01.768Z,14.20
2023-05-01T23:18:58.972Z,14.25
2023-05-01T23:21:25.941Z,14.93
2023-05-01T23:23:52.775Z,14.35
2023-05-01T23:26:27.951Z,13.43
2023-05-01T23:28:55.007Z,15.00
2023-05-01T23:33:50.744Z,14.07
2023-05-01T23:36:18.033Z,14.15
2023-05-01T23:38:44.786Z,14.77
2023-05-01T23:41:12.040Z,13.52
2023-05-01T23:43:38.724Z,14.05
2023-05-01T23:46:06.194Z,13.63
2023-05-01T23:48:33.885Z,15.02
2023-05-01T23:51:00.681Z,13.65
2023-05-01T23:53:27.293Z,13.82
2023-05-01T23:55:53.768Z,14.48
2023-05-01T23:58:20.524Z,13.82
